Terminal Aerodrome Forecast
Issued by NWS

Home | Current Version | Previous Version | Text Only | Print | Product List | Glossary On
Versions: 1 2 3 4 5 6 7 8 9 10 11 12 13
000
FTUS45 KREV 250500
TAFMMH
TAF
KMMH 250524Z 2506/2606 20015G25KT P6SM SCT060 BKN120
     FM251400 23020G35KT P6SM VCSH SCT070 BKN140
     FM251800 25012G27KT 4SM -RASN OVC015
      AMD NOT SKED 2506/2514=

USA.gov is the U.S. government's official web portal to all federal, state and local government web resources and services.